Time,TemperatureF,DewpointF,PressureIn,WindDirection,WindDirectionDegrees,WindSpeedMPH,WindSpeedGustMPH,Humidity,HourlyPrecipIn,Conditions,Clouds,dailyrainin,SolarRadiationWatts/m^2,SoftwareType,DateUTC
2013-10-09 00:07:00,52.1,26.0,29.68,NW,312,3.0,-999.0,37,-99.99,,,0.00,0,weatherlink.com 1.10,2013-10-09 07:07:00,
2013-10-09 00:23:00,51.5,26.0,29.67,WNW,301,4.0,-999.0,37,-99.99,,,0.00,0,weatherlink.com 1.10,2013-10-09 07:23:00,
2013-10-09 00:38:00,50.4,25.0,29.67,NW,304,3.0,-999.0,37,-99.99,,,0.00,0,weatherlink.com 1.10,2013-10-09 07:38:00,
2013-10-09 00:53:00,50.0,25.0,29.66,WNW,290,3.0,-999.0,38,-99.99,,,0.00,0,weatherlink.com 1.10,2013-10-09 07:53:00,
2013-10-09 01:08:00,50.2,25.0,29.65,WNW,293,5.0,-999.0,38,-99.99,,,0.00,0,weatherlink.com 1.10,2013-10-09 08:08:00,
2013-10-09 01:23:00,50.4,25.0,29.65,WNW,296,2.0,-999.0,38,-99.99,,,0.00,0,weatherlink.com 1.10,2013-10-09 08:23:00,
2013-10-09 01:38:00,50.7,26.0,29.65,NW,304,3.0,-999.0,39,-99.99,,,0.00,0,weatherlink.com 1.10,2013-10-09 08:38:00,
2013-10-09 01:53:00,51.2,27.0,29.64,NW,304,4.0,-999.0,40,-99.99,,,0.00,0,weatherlink.com 1.10,2013-10-09 08:53:00,
2013-10-09 02:08:00,51.2,29.0,29.63,NW,317,7.0,-999.0,42,-99.99,,,0.00,0,weatherlink.com 1.10,2013-10-09 09:08:00,
2013-10-09 02:23:00,51.1,29.0,29.62,NW,309,4.0,-999.0,43,-99.99,,,0.00,0,weatherlink.com 1.10,2013-10-09 09:23:00,
2013-10-09 02:38:00,50.7,29.0,29.62,WNW,290,5.0,-999.0,43,-99.99,,,0.00,0,weatherlink.com 1.10,2013-10-09 09:38:00,
2013-10-09 02:53:00,50.0,29.0,29.61,WNW,294,3.0,-999.0,44,-99.99,,,0.00,0,weatherlink.com 1.10,2013-10-09 09:53:00,
2013-10-09 03:08:00,49.5,29.0,29.61,WNW,285,4.0,-999.0,45,-99.99,,,0.00,0,weatherlink.com 1.10,2013-10-09 10:08:00,
2013-10-09 03:23:00,49.1,29.0,29.61,West,271,2.0,-999.0,46,-99.99,,,0.00,0,weatherlink.com 1.10,2013-10-09 10:23:00,
2013-10-09 03:38:00,48.6,28.0,29.60,West,272,2.0,-999.0,46,-99.99,,,0.00,0,weatherlink.com 1.10,2013-10-09 10:38:00,
2013-10-09 03:53:00,48.2,29.0,29.59,West,271,2.0,-999.0,47,-99.99,,,0.00,0,weatherlink.com 1.10,2013-10-09 10:53:00,
2013-10-09 04:08:00,47.9,29.0,29.59,West,271,3.0,-999.0,49,-99.99,,,0.00,0,weatherlink.com 1.10,2013-10-09 11:08:00,
2013-10-09 04:23:00,48.7,30.0,29.59,West,269,4.0,-999.0,48,-99.99,,,0.00,0,weatherlink.com 1.10,2013-10-09 11:23:00,
2013-10-09 04:38:00,49.4,30.0,29.59,NW,310,2.0,-999.0,47,-99.99,,,0.00,0,weatherlink.com 1.10,2013-10-09 11:38:00,
2013-10-09 04:53:00,48.9,29.0,29.58,WSW,246,4.0,-999.0,47,-99.99,,,0.00,0,weatherlink.com 1.10,2013-10-09 11:53:00,
2013-10-09 05:08:00,48.7,30.0,29.58,WSW,252,3.0,-999.0,48,-99.99,,,0.00,0,weatherlink.com 1.10,2013-10-09 12:08:00,
2013-10-09 05:23:00,48.2,29.0,29.58,WSW,247,7.0,-999.0,48,-99.99,,,0.00,0,weatherlink.com 1.10,2013-10-09 12:23:00,
2013-10-09 05:38:00,48.5,31.0,29.58,WNW,296,6.0,-999.0,52,-99.99,,,0.00,0,weatherlink.com 1.10,2013-10-09 12:38:00,
2013-10-09 05:54:00,49.4,32.0,29.58,West,278,12.0,-999.0,52,-99.99,,,0.00,0,weatherlink.com 1.10,2013-10-09 12:54:00,
2013-10-09 06:09:00,49.2,33.0,29.58,West,271,6.0,-999.0,53,-99.99,,,0.00,0,weatherlink.com 1.10,2013-10-09 13:09:00,
2013-10-09 06:24:00,47.8,32.0,29.58,WNW,299,6.0,-999.0,55,-99.99,,,0.00,0,weatherlink.com 1.10,2013-10-09 13:24:00,
2013-10-09 06:39:00,46.4,32.0,29.58,West,261,5.0,-999.0,58,-99.99,,,0.00,0,weatherlink.com 1.10,2013-10-09 13:39:00,
2013-10-09 06:54:00,45.3,32.0,29.58,West,275,2.0,-999.0,60,-99.99,,,0.00,0,weatherlink.com 1.10,2013-10-09 13:54:00,
2013-10-09 07:09:00,44.3,32.0,29.58,WNW,283,2.0,-999.0,62,-99.99,,,0.00,5,weatherlink.com 1.10,2013-10-09 14:09:00,
2013-10-09 07:24:00,43.7,33.0,29.59,WNW,302,1.0,-999.0,65,-99.99,,,0.00,25,weatherlink.com 1.10,2013-10-09 14:24:00,
2013-10-09 07:39:00,43.7,33.0,29.60,WNW,286,3.0,-999.0,66,-99.99,,,0.00,32,weatherlink.com 1.10,2013-10-09 14:39:00,
2013-10-09 07:54:00,43.6,33.0,29.60,NW,315,0.0,-999.0,67,-99.99,,,0.00,18,weatherlink.com 1.10,2013-10-09 14:54:00,
2013-10-09 08:09:00,43.7,34.0,29.60,NW,314,2.0,-999.0,68,-99.99,,,0.00,158,weatherlink.com 1.10,2013-10-09 15:09:00,
2013-10-09 08:24:00,45.1,35.0,29.60,NNW,332,0.0,-999.0,67,-99.99,,,0.00,63,weatherlink.com 1.10,2013-10-09 15:24:00,
2013-10-09 08:39:00,45.8,35.0,29.60,North,5,0.0,-999.0,65,-99.99,,,0.00,111,weatherlink.com 1.10,2013-10-09 15:39:00,
2013-10-09 08:54:00,46.5,35.0,29.60,NNW,348,2.0,-999.0,64,-99.99,,,0.00,155,weatherlink.com 1.10,2013-10-09 15:54:00,
2013-10-09 09:09:00,48.8,35.0,29.60,WNW,284,8.0,-999.0,59,-99.99,,,0.00,264,weatherlink.com 1.10,2013-10-09 16:09:00,
2013-10-09 09:24:00,50.6,35.0,29.61,NNW,337,7.0,-999.0,55,-99.99,,,0.00,297,weatherlink.com 1.10,2013-10-09 16:24:00,
2013-10-09 09:39:00,51.1,35.0,29.61,NNW,332,6.0,-999.0,54,-99.99,,,0.00,257,weatherlink.com 1.10,2013-10-09 16:39:00,
2013-10-09 09:54:00,50.7,34.0,29.61,NNW,338,12.0,-999.0,54,-99.99,,,0.00,418,weatherlink.com 1.10,2013-10-09 16:54:00,
2013-10-09 10:24:00,52.1,34.0,29.61,NNW,336,8.0,-999.0,50,-99.99,,,0.00,338,weatherlink.com 1.10,2013-10-09 17:24:00,
2013-10-09 10:39:00,51.6,33.0,29.61,NNW,327,13.0,-999.0,50,-99.99,,,0.00,206,weatherlink.com 1.10,2013-10-09 17:39:00,
2013-10-09 10:54:00,52.3,33.0,29.61,North,355,6.0,-999.0,49,-99.99,,,0.00,338,weatherlink.com 1.10,2013-10-09 17:54:00,
2013-10-09 11:09:00,51.0,34.0,29.61,NNE,19,10.0,-999.0,52,-99.99,,,0.00,223,weatherlink.com 1.10,2013-10-09 18:09:00,
2013-10-09 11:24:00,49.9,34.0,29.61,NNW,329,10.0,-999.0,54,-99.99,,,0.00,127,weatherlink.com 1.10,2013-10-09 18:24:00,
2013-10-09 11:39:00,49.3,35.0,29.62,NNW,334,3.0,-999.0,59,-99.99,,,0.00,149,weatherlink.com 1.10,2013-10-09 18:39:00,
2013-10-09 11:54:00,49.2,35.0,29.62,NW,308,10.0,-999.0,58,-99.99,,,0.00,141,weatherlink.com 1.10,2013-10-09 18:54:00,
2013-10-09 12:09:00,49.5,35.0,29.62,NW,322,4.0,-999.0,57,-99.99,,,0.00,130,weatherlink.com 1.10,2013-10-09 19:09:00,
2013-10-09 12:24:00,49.5,35.0,29.61,NNW,336,0.0,-999.0,57,-99.99,,,0.00,139,weatherlink.com 1.10,2013-10-09 19:24:00,
2013-10-09 12:39:00,49.9,35.0,29.61,NNE,27,0.0,-999.0,56,-99.99,,,0.00,163,weatherlink.com 1.10,2013-10-09 19:39:00,
2013-10-09 12:54:00,50.9,35.0,29.60,North,5,7.0,-999.0,55,-99.99,,,0.00,388,weatherlink.com 1.10,2013-10-09 19:54:00,
2013-10-09 13:09:00,51.5,35.0,29.59,NNW,336,6.0,-999.0,54,-99.99,,,0.00,197,weatherlink.com 1.10,2013-10-09 20:09:00,
2013-10-09 13:24:00,51.4,35.0,29.59,NNW,348,11.0,-999.0,54,-99.99,,,0.00,165,weatherlink.com 1.10,2013-10-09 20:24:00,
2013-10-09 13:39:00,51.2,35.0,29.58,North,355,6.0,-999.0,54,-99.99,,,0.00,169,weatherlink.com 1.10,2013-10-09 20:39:00,
2013-10-09 13:54:00,50.5,35.0,29.58,NNE,17,5.0,-999.0,56,-99.99,,,0.00,100,weatherlink.com 1.10,2013-10-09 20:54:00,
2013-10-09 14:09:00,50.8,34.0,29.57,NW,324,9.0,-999.0,54,-99.99,,,0.00,84,weatherlink.com 1.10,2013-10-09 21:09:00,
2013-10-09 14:24:00,50.1,36.0,29.58,NW,308,7.0,-999.0,58,-99.99,,,0.00,105,weatherlink.com 1.10,2013-10-09 21:24:00,
2013-10-09 14:39:00,49.1,37.0,29.58,WNW,288,4.0,-999.0,63,-99.99,,,0.00,128,weatherlink.com 1.10,2013-10-09 21:39:00,
2013-10-09 14:55:00,48.4,37.0,29.58,NW,313,6.0,-999.0,66,-99.99,,,0.00,39,weatherlink.com 1.10,2013-10-09 21:55:00,
2013-10-09 15:09:00,47.2,37.0,29.59,NNE,28,0.0,-999.0,69,-99.99,,,0.02,25,weatherlink.com 1.10,2013-10-09 22:09:00,
2013-10-09 15:24:00,44.6,36.0,29.60,WSW,244,2.0,-999.0,72,-99.99,,,0.07,11,weatherlink.com 1.10,2013-10-09 22:24:00,
2013-10-09 15:39:00,43.2,36.0,29.60,WSW,244,2.0,-999.0,75,-99.99,,,0.09,25,weatherlink.com 1.10,2013-10-09 22:39:00,
2013-10-09 15:54:00,43.3,37.0,29.62,NNW,335,4.0,-999.0,77,-99.99,,,0.09,18,weatherlink.com 1.10,2013-10-09 22:54:00,
2013-10-09 16:09:00,42.8,36.0,29.62,NW,319,4.0,-999.0,78,-99.99,,,0.12,11,weatherlink.com 1.10,2013-10-09 23:09:00,
2013-10-09 16:25:00,42.6,37.0,29.64,WSW,254,5.0,-999.0,79,-99.99,,,0.17,7,weatherlink.com 1.10,2013-10-09 23:25:00,
2013-10-09 16:40:00,41.6,36.0,29.64,SW,236,5.0,-999.0,79,-99.99,,,0.23,9,weatherlink.com 1.10,2013-10-09 23:40:00,
2013-10-09 16:55:00,41.0,35.0,29.65,WSW,242,10.0,-999.0,80,-99.99,,,0.30,14,weatherlink.com 1.10,2013-10-09 23:55:00,
2013-10-09 17:10:00,40.8,35.0,29.65,WSW,242,8.0,-999.0,81,-99.99,,,0.33,21,weatherlink.com 1.10,2013-10-10 00:10:00,
2013-10-09 17:25:00,41.1,36.0,29.66,West,271,6.0,-999.0,81,-99.99,,,0.35,28,weatherlink.com 1.10,2013-10-10 00:25:00,
2013-10-09 17:40:00,40.5,35.0,29.67,SW,235,9.0,-999.0,81,-99.99,,,0.36,46,weatherlink.com 1.10,2013-10-10 00:40:00,
2013-10-09 17:55:00,40.3,35.0,29.66,SW,233,11.0,-999.0,81,-99.99,,,0.37,58,weatherlink.com 1.10,2013-10-10 00:55:00,
2013-10-09 18:10:00,40.3,35.0,29.67,WSW,239,9.0,-999.0,81,-99.99,,,0.37,40,weatherlink.com 1.10,2013-10-10 01:10:00,
2013-10-09 18:25:00,40.5,35.0,29.67,WNW,298,4.0,-999.0,81,-99.99,,,0.37,7,weatherlink.com 1.10,2013-10-10 01:25:00,
2013-10-09 18:40:00,40.4,35.0,29.68,NW,306,2.0,-999.0,81,-99.99,,,0.37,0,weatherlink.com 1.10,2013-10-10 01:40:00,
2013-10-09 18:55:00,40.2,35.0,29.69,NW,312,6.0,-999.0,81,-99.99,,,0.37,0,weatherlink.com 1.10,2013-10-10 01:55:00,
2013-10-09 19:10:00,40.6,36.0,29.69,NW,316,4.0,-999.0,82,-99.99,,,0.37,0,weatherlink.com 1.10,2013-10-10 02:10:00,
2013-10-09 19:25:00,40.6,36.0,29.69,NW,315,3.0,-999.0,82,-99.99,,,0.38,0,weatherlink.com 1.10,2013-10-10 02:25:00,
2013-10-09 19:40:00,40.7,36.0,29.69,WSW,241,3.0,-999.0,83,-99.99,,,0.38,0,weatherlink.com 1.10,2013-10-10 02:40:00,
2013-10-09 19:55:00,40.2,35.0,29.69,West,264,5.0,-999.0,83,-99.99,,,0.38,0,weatherlink.com 1.10,2013-10-10 02:55:00,
2013-10-09 20:10:00,40.0,35.0,29.69,WSW,240,6.0,-999.0,83,-99.99,,,0.38,0,weatherlink.com 1.10,2013-10-10 03:10:00,
2013-10-09 20:25:00,39.8,35.0,29.70,West,271,2.0,-999.0,83,-99.99,,,0.38,0,weatherlink.com 1.10,2013-10-10 03:25:00,
2013-10-09 20:40:00,39.7,35.0,29.71,West,264,4.0,-999.0,83,-99.99,,,0.38,0,weatherlink.com 1.10,2013-10-10 03:40:00,
2013-10-09 21:10:00,39.9,35.0,29.73,WSW,243,6.0,-999.0,83,-99.99,,,0.38,0,weatherlink.com 1.10,2013-10-10 04:10:00,
2013-10-09 21:25:00,40.0,35.0,29.74,WSW,240,4.0,-999.0,83,-99.99,,,0.38,0,weatherlink.com 1.10,2013-10-10 04:25:00,
2013-10-09 21:40:00,40.3,36.0,29.75,WSW,254,9.0,-999.0,83,-99.99,,,0.38,0,weatherlink.com 1.10,2013-10-10 04:40:00,
2013-10-09 21:55:00,40.6,36.0,29.76,West,269,7.0,-999.0,83,-99.99,,,0.38,0,weatherlink.com 1.10,2013-10-10 04:55:00,
2013-10-09 22:10:00,40.8,36.0,29.76,West,280,4.0,-999.0,83,-99.99,,,0.38,0,weatherlink.com 1.10,2013-10-10 05:10:00,
2013-10-09 22:25:00,41.0,36.0,29.77,WSW,257,4.0,-999.0,83,-99.99,,,0.38,0,weatherlink.com 1.10,2013-10-10 05:25:00,
2013-10-09 22:40:00,41.1,36.0,29.77,West,260,5.0,-999.0,83,-99.99,,,0.38,0,weatherlink.com 1.10,2013-10-10 05:40:00,
2013-10-09 22:55:00,41.0,36.0,29.78,West,271,7.0,-999.0,83,-99.99,,,0.38,0,weatherlink.com 1.10,2013-10-10 05:55:00,
2013-10-09 23:10:00,40.8,36.0,29.79,West,271,4.0,-999.0,83,-99.99,,,0.38,0,weatherlink.com 1.10,2013-10-10 06:10:00,
2013-10-09 23:26:00,41.0,36.0,29.79,West,273,7.0,-999.0,83,-99.99,,,0.38,0,weatherlink.com 1.10,2013-10-10 06:26:00,
2013-10-09 23:40:00,41.0,36.0,29.79,West,269,5.0,-999.0,83,-99.99,,,0.38,0,weatherlink.com 1.10,2013-10-10 06:40:00,
2013-10-09 23:55:00,40.8,36.0,29.80,West,263,4.0,-999.0,83,-99.99,,,0.38,0,weatherlink.com 1.10,2013-10-10 06:55:00,